Time;durP1;ratioP1;P1;durP2;ratioP2;P2;SDS_P1;SDS_P2;PMS_P1;PMS_P2;Temp;Humidity;BMP_temperature;BMP_pressure;BME280_temperature;BME280_humidity;BME280_pressure;Samples;Min_cycle;Max_cycle;Signal;HPM_P1;HPM_P2
2021/10/17 00:00:26;;;;;;;5.53;1.95;;;;;;;9.72;84.92;101308.38;4991418;28;20037;-85
2021/10/17 00:02:54;;;;;;;5.68;2.25;;;;;;;9.59;84.26;101305.47;5015500;28;20065;-78
2021/10/17 00:05:24;;;;;;;5.97;2.22;;;;;;;9.60;84.13;101317.69;4974742;28;20445;-80
2021/10/17 00:07:51;;;;;;;9.43;2.95;;;;;;;9.59;83.98;101318.63;5009446;28;20054;-80
2021/10/17 00:10:24;;;;;;;9.27;2.88;;;;;;;9.57;84.49;101315.19;4990769;28;20122;-79
2021/10/17 00:12:56;;;;;;;7.10;2.90;;;;;;;9.59;83.85;101310.72;4991201;28;20390;-77
2021/10/17 00:15:25;;;;;;;7.50;2.47;;;;;;;9.59;85.14;101307.22;5022427;28;20049;-79
2021/10/17 00:17:52;;;;;;;8.93;2.97;;;;;;;9.60;84.43;101304.53;5014532;28;20527;-75
2021/10/17 00:20:21;;;;;;;7.80;2.63;;;;;;;9.63;84.68;101295.66;4990447;28;20088;-76
2021/10/17 00:22:49;;;;;;;6.22;2.50;;;;;;;9.59;85.81;101304.59;5035628;28;20045;-80
2021/10/17 00:25:17;;;;;;;8.57;2.58;;;;;;;9.52;86.17;101306.66;4988894;28;20136;-79
2021/10/17 00:27:45;;;;;;;6.40;2.30;;;;;;;9.37;86.70;101292.41;5013048;28;20132;-81
2021/10/17 00:30:13;;;;;;;6.10;2.20;;;;;;;9.33;87.85;101292.59;5009025;28;20132;-78
2021/10/17 00:32:41;;;;;;;9.20;2.15;;;;;;;9.53;86.99;101294.34;5011854;28;20130;-78
2021/10/17 00:35:09;;;;;;;9.70;2.45;;;;;;;9.52;87.29;101292.66;5015262;28;20057;-77
2021/10/17 00:37:37;;;;;;;8.90;2.67;;;;;;;9.51;87.14;101304.94;5015184;28;20045;-79
2021/10/17 00:40:07;;;;;;;8.15;2.90;;;;;;;9.35;87.67;101303.88;5012416;28;20140;-82
2021/10/17 00:42:36;;;;;;;7.80;2.47;;;;;;;9.39;88.52;101292.31;4992853;28;20148;-79
2021/10/17 00:45:07;;;;;;;5.90;2.20;;;;;;;9.42;88.09;101296.63;4992301;28;20509;-78
2021/10/17 00:47:35;;;;;;;10.10;2.47;;;;;;;9.15;88.72;101298.66;5030055;28;20187;-79
2021/10/17 00:50:03;;;;;;;8.73;2.58;;;;;;;9.21;88.51;101293.97;5011062;28;20561;-79
2021/10/17 00:52:30;;;;;;;7.97;2.20;;;;;;;9.00;89.54;101289.63;5019930;28;20128;-78
2021/10/17 00:55:00;;;;;;;6.43;2.22;;;;;;;9.15;90.03;101289.00;5003034;28;20045;-76
2021/10/17 00:57:28;;;;;;;6.65;2.47;;;;;;;9.41;89.08;101287.88;5027710;28;20424;-78
2021/10/17 00:59:55;;;;;;;9.30;2.78;;;;;;;9.42;87.99;101288.72;5012079;28;20127;-78
2021/10/17 01:02:29;;;;;;;6.97;2.53;;;;;;;9.44;87.13;101282.47;5019100;28;20072;-78
2021/10/17 01:04:59;;;;;;;7.57;3.28;;;;;;;9.34;84.67;101283.78;4993030;28;20339;-80
2021/10/17 01:07:28;;;;;;;8.98;2.13;;;;;;;9.37;84.07;101287.16;4997253;28;20060;-79
2021/10/17 01:09:55;;;;;;;6.63;2.58;;;;;;;9.43;83.11;101282.53;4989965;28;20104;-78
2021/10/17 01:12:22;;;;;;;11.10;2.90;;;;;;;9.42;82.20;101284.31;5014154;28;20049;-78
2021/10/17 01:14:52;;;;;;;9.00;2.25;;;;;;;9.46;81.37;101283.28;4997538;28;20045;-78
2021/10/17 01:17:19;;;;;;;7.80;2.35;;;;;;;9.51;81.41;101280.44;5015582;28;20058;-77
2021/10/17 01:19:48;;;;;;;6.80;2.38;;;;;;;9.48;80.50;101280.56;5031076;28;20125;-76
2021/10/17 01:22:19;;;;;;;8.40;2.35;;;;;;;9.50;79.38;101281.34;5032709;28;20050;-82
2021/10/17 01:24:47;;;;;;;6.25;2.08;;;;;;;9.45;79.68;101278.06;4980226;28;20095;-76
2021/10/17 01:27:14;;;;;;;14.45;2.75;;;;;;;9.54;78.75;101275.88;5009396;28;20053;-83
2021/10/17 01:29:41;;;;;;;4.05;1.98;;;;;;;9.45;78.52;101264.91;4976760;28;20056;-77
2021/10/17 01:32:08;;;;;;;8.90;3.05;;;;;;;9.44;79.32;101268.47;5013331;28;20133;-78
2021/10/17 01:34:35;;;;;;;7.80;2.35;;;;;;;9.43;78.12;101262.38;5011322;28;20045;-78
2021/10/17 01:37:04;;;;;;;7.05;2.33;;;;;;;9.38;78.75;101262.56;5000315;28;20053;-77
2021/10/17 01:39:31;;;;;;;7.50;2.55;;;;;;;9.39;78.67;101264.28;5011703;28;20125;-80
2021/10/17 01:42:17;;;;;;;6.40;1.90;;;;;;;9.39;79.08;101260.78;5032664;28;20052;-78
2021/10/17 01:44:44;;;;;;;12.20;2.88;;;;;;;9.42;77.79;101258.03;5010188;28;20476;-80
2021/10/17 01:47:11;;;;;;;5.88;2.35;;;;;;;9.44;77.70;101260.59;5015819;28;20049;-80
2021/10/17 01:49:44;;;;;;;8.88;3.05;;;;;;;9.17;77.82;101255.63;4992455;28;20041;-79
2021/10/17 01:52:11;;;;;;;8.80;2.78;;;;;;;9.33;77.92;101253.19;5012767;28;20140;-78
2021/10/17 01:54:38;;;;;;;4.70;1.90;;;;;;;9.36;77.11;101251.25;5009811;28;20050;-79
2021/10/17 01:57:08;;;;;;;10.52;2.25;;;;;;;9.31;77.20;101247.13;4996387;28;20497;-76
2021/10/17 01:59:38;;;;;;;5.93;2.08;;;;;;;9.47;76.55;101244.69;4992141;28;20070;-76
2021/10/17 02:02:05;;;;;;;5.13;2.08;;;;;;;9.32;77.31;101248.84;5027795;28;20163;-79
2021/10/17 02:04:32;;;;;;;6.07;2.60;;;;;;;9.28;77.65;101247.28;5008607;28;20065;-79
2021/10/17 02:06:59;;;;;;;6.03;2.47;;;;;;;9.41;77.50;101243.19;5008853;28;20056;-79
2021/10/17 02:09:26;;;;;;;9.90;3.15;;;;;;;9.22;77.30;101245.75;5008535;28;20081;-76
2021/10/17 02:11:54;;;;;;;7.20;2.58;;;;;;;9.11;77.34;101240.13;5013817;28;20076;-81
2021/10/17 02:14:22;;;;;;;7.18;2.30;;;;;;;9.32;77.71;101240.94;5010695;28;20044;-82
2021/10/17 02:16:49;;;;;;;8.80;2.72;;;;;;;9.21;77.92;101237.94;4983107;28;20048;-81
2021/10/17 02:19:16;;;;;;;9.52;2.00;;;;;;;9.29;77.46;101234.06;5025013;28;20065;-79
2021/10/17 02:21:43;;;;;;;8.60;2.60;;;;;;;9.33;77.18;101237.44;5013369;28;20045;-77
2021/10/17 02:24:11;;;;;;;8.60;3.03;;;;;;;9.23;77.18;101238.72;5008769;28;20065;-82
2021/10/17 02:26:38;;;;;;;10.48;2.88;;;;;;;9.38;77.09;101232.81;5009359;28;20126;-80
2021/10/17 02:29:06;;;;;;;7.32;2.50;;;;;;;9.40;75.56;101228.34;5027002;28;20050;-83
2021/10/17 02:31:33;;;;;;;7.65;2.67;;;;;;;9.28;76.43;101226.28;5013048;28;20045;-78
2021/10/17 02:34:01;;;;;;;13.90;4.07;;;;;;;9.25;77.31;101223.75;5008289;28;20052;-80
2021/10/17 02:36:28;;;;;;;9.48;2.55;;;;;;;9.13;78.59;101226.00;4994413;28;20535;-78
2021/10/17 02:38:55;;;;;;;11.27;3.10;;;;;;;8.96;79.94;101212.75;5010357;28;20052;-78
2021/10/17 02:41:22;;;;;;;6.93;2.13;;;;;;;8.95;80.42;101218.91;4994218;28;20065;-79
2021/10/17 02:43:49;;;;;;;7.90;2.40;;;;;;;8.91;80.73;101213.84;5007657;28;20067;-78
2021/10/17 02:46:16;;;;;;;6.45;2.78;;;;;;;9.15;79.86;101217.22;5010555;28;20056;-80
2021/10/17 02:48:44;;;;;;;10.82;2.67;;;;;;;9.22;79.33;101218.63;5000334;28;20041;-76
2021/10/17 02:51:12;;;;;;;7.35;3.05;;;;;;;9.21;79.28;101212.53;5013359;28;20444;-78
2021/10/17 02:53:39;;;;;;;8.25;2.88;;;;;;;9.09;80.01;101215.69;4993860;28;20064;-82
2021/10/17 02:56:08;;;;;;;7.57;2.50;;;;;;;9.14;78.29;101216.38;4994064;28;20128;-78
2021/10/17 02:58:35;;;;;;;9.70;2.88;;;;;;;8.98;80.16;101210.91;4989384;28;20362;-77
2021/10/17 03:01:02;;;;;;;10.15;2.83;;;;;;;8.88;81.24;101210.44;5008861;28;20072;-78
2021/10/17 03:03:29;;;;;;;10.18;2.72;;;;;;;8.96;80.44;101218.00;4986313;28;20149;-82
2021/10/17 03:05:56;;;;;;;9.98;3.00;;;;;;;9.09;79.84;101213.91;5027460;28;20476;-78
2021/10/17 03:08:24;;;;;;;11.02;2.85;;;;;;;9.06;80.23;101218.47;5009425;28;20056;-78
2021/10/17 03:10:51;;;;;;;8.02;3.10;;;;;;;8.85;82.00;101204.47;4984619;28;20051;-76
2021/10/17 03:13:18;;;;;;;7.05;3.00;;;;;;;8.93;81.91;101212.03;5015196;28;20060;-83
2021/10/17 03:15:45;;;;;;;8.65;3.15;;;;;;;9.10;81.13;101209.53;4998325;28;20058;-81
2021/10/17 03:18:12;;;;;;;7.25;3.13;;;;;;;9.08;82.03;101206.97;5031868;28;20061;-82
2021/10/17 03:20:39;;;;;;;11.82;3.00;;;;;;;8.88;83.42;101210.44;5012600;28;20056;-76
2021/10/17 03:23:06;;;;;;;8.88;3.33;;;;;;;8.72;84.44;101213.78;5004177;28;20132;-79
2021/10/17 03:25:34;;;;;;;10.60;3.40;;;;;;;8.83;84.71;101211.56;5016159;28;20049;-78
2021/10/17 03:28:01;;;;;;;9.65;2.88;;;;;;;8.85;84.48;101213.19;5013142;28;20057;-77
2021/10/17 03:30:28;;;;;;;15.60;3.60;;;;;;;8.94;85.07;101216.34;5006656;28;20053;-79
2021/10/17 03:32:55;;;;;;;11.10;3.45;;;;;;;8.87;83.79;101207.88;4992715;28;20049;-83
2021/10/17 03:35:22;;;;;;;7.93;2.72;;;;;;;8.98;83.65;101202.19;5024567;28;20053;-77
2021/10/17 03:37:49;;;;;;;9.25;3.22;;;;;;;8.92;82.76;101189.31;5013367;28;20058;-81
2021/10/17 03:40:16;;;;;;;12.25;2.70;;;;;;;8.78;83.43;101192.50;5027634;28;20059;-79
2021/10/17 03:42:44;;;;;;;8.77;2.75;;;;;;;8.45;85.36;101194.78;5020049;28;20053;-80
2021/10/17 03:45:11;;;;;;;11.88;3.30;;;;;;;8.08;87.20;101193.59;5011396;28;20054;-78
2021/10/17 03:47:38;;;;;;;11.50;3.47;;;;;;;7.77;89.51;101189.53;5019748;28;20045;-75
2021/10/17 03:50:05;;;;;;;12.48;3.55;;;;;;;7.73;90.06;101194.97;5009564;28;20073;-79
2021/10/17 03:52:33;;;;;;;8.82;3.38;;;;;;;7.52;91.46;101188.75;4996396;28;20045;-82
2021/10/17 03:55:01;;;;;;;9.75;3.05;;;;;;;7.34;92.34;101183.31;5005074;28;20064;-77
2021/10/17 03:57:28;;;;;;;5.88;2.90;;;;;;;7.16;93.38;101183.97;4994601;28;20522;-82
2021/10/17 03:59:55;;;;;;;8.98;3.38;;;;;;;7.03;94.52;101187.94;5010997;28;20075;-78
2021/10/17 04:02:22;;;;;;;7.90;2.70;;;;;;;6.93;95.64;101186.53;5016943;28;20064;-81
2021/10/17 04:04:49;;;;;;;12.55;3.00;;;;;;;7.07;95.63;101190.38;5010217;28;20064;-80
2021/10/17 04:07:16;;;;;;;8.93;3.10;;;;;;;6.95;95.96;101188.19;5017484;28;20053;-79
2021/10/17 04:09:44;;;;;;;9.95;3.13;;;;;;;6.94;97.08;101190.88;4987591;28;20140;-78
2021/10/17 04:12:11;;;;;;;7.47;3.13;;;;;;;7.08;96.52;101193.84;5008026;28;20053;-80
2021/10/17 04:14:38;;;;;;;11.55;3.50;;;;;;;6.87;97.37;101186.75;4995998;28;20420;-76
2021/10/17 04:17:05;;;;;;;8.02;3.50;;;;;;;6.90;97.81;101186.66;5017855;28;20037;-78
2021/10/17 04:19:33;;;;;;;12.40;3.75;;;;;;;6.73;99.42;101188.06;5004471;28;20594;-79
2021/10/17 04:22:00;;;;;;;9.02;3.50;;;;;;;6.81;99.24;101188.66;5025148;28;20053;-79
2021/10/17 04:24:27;;;;;;;9.60;3.00;;;;;;;6.91;98.09;101185.72;5008660;28;20145;-79
2021/10/17 04:26:54;;;;;;;14.05;4.13;;;;;;;6.68;99.66;101187.38;4998059;28;20512;-78
2021/10/17 04:29:22;;;;;;;11.38;3.25;;;;;;;6.56;100.00;101185.16;5010042;28;20615;-77
2021/10/17 04:31:49;;;;;;;11.63;3.60;;;;;;;6.46;100.00;101179.38;5018031;28;20084;-77
2021/10/17 04:34:16;;;;;;;9.70;3.28;;;;;;;6.64;100.00;101180.53;5010542;28;20286;-84
2021/10/17 04:36:43;;;;;;;7.63;3.38;;;;;;;6.71;100.00;101183.78;5024189;28;20231;-76
2021/10/17 04:39:10;;;;;;;7.63;3.38;;;;;;;6.51;100.00;101174.84;5013644;28;20080;-86
2021/10/17 04:41:38;;;;;;;6.72;2.83;;;;;;;6.41;100.00;101180.44;4998368;28;20045;-77
2021/10/17 04:44:05;;;;;;;16.50;3.80;;;;;;;6.43;100.00;101179.47;4995156;28;20044;-81
2021/10/17 04:46:33;;;;;;;11.30;3.58;;;;;;;6.19;100.00;101178.53;5024442;28;20050;-75
2021/10/17 04:49:00;;;;;;;10.15;3.17;;;;;;;6.34;100.00;101177.16;4996276;28;20045;-80
2021/10/17 04:51:27;;;;;;;13.02;3.40;;;;;;;6.45;100.00;101180.31;5001360;28;20053;-76
2021/10/17 04:53:54;;;;;;;7.40;3.38;;;;;;;6.64;100.00;101184.91;5012494;28;20063;-80
2021/10/17 04:56:22;;;;;;;10.32;3.45;;;;;;;6.65;100.00;101181.38;5012353;28;20653;-76
2021/10/17 04:58:49;;;;;;;13.45;3.25;;;;;;;6.55;100.00;101180.84;5011965;28;20135;-78
2021/10/17 05:01:16;;;;;;;10.07;3.38;;;;;;;6.41;100.00;101181.31;4996131;28;20041;-75
2021/10/17 05:03:44;;;;;;;12.38;3.22;;;;;;;6.49;100.00;101183.69;4992903;28;20042;-79
2021/10/17 05:06:11;;;;;;;10.90;2.65;;;;;;;6.66;100.00;101185.72;5011770;28;20053;-76
2021/10/17 05:08:38;;;;;;;6.00;2.67;;;;;;;6.66;99.97;101188.31;5012895;28;20053;-79
2021/10/17 05:11:05;;;;;;;10.38;3.10;;;;;;;6.52;100.00;101184.41;5012590;28;20409;-78
2021/10/17 05:13:33;;;;;;;5.75;2.47;;;;;;;6.37;100.00;101192.75;5014549;28;20042;-83
2021/10/17 05:16:00;;;;;;;9.80;2.70;;;;;;;6.47;100.00;101188.94;5016042;28;20053;-75
2021/10/17 05:18:27;;;;;;;10.10;2.80;;;;;;;6.51;100.00;101184.47;5030985;28;20037;-80
2021/10/17 05:20:54;;;;;;;8.82;2.63;;;;;;;6.48;100.00;101188.03;4995703;28;20053;-80
2021/10/17 05:23:23;;;;;;;7.53;2.45;;;;;;;6.22;100.00;101198.50;5030878;28;20057;-78
2021/10/17 05:25:50;;;;;;;11.80;3.15;;;;;;;6.23;100.00;101193.22;5011772;28;20060;-78
2021/10/17 05:28:17;;;;;;;13.45;3.38;;;;;;;6.24;100.00;101196.69;5011129;28;20049;-82
2021/10/17 05:30:45;;;;;;;8.75;3.40;;;;;;;6.32;100.00;101194.69;4993226;28;20045;-75
2021/10/17 05:33:12;;;;;;;8.38;3.08;;;;;;;6.48;100.00;101193.25;5025989;28;20165;-84
2021/10/17 05:35:39;;;;;;;8.98;3.67;;;;;;;6.48;99.65;101193.25;5015916;28;20054;-78
2021/10/17 05:38:06;;;;;;;9.23;2.95;;;;;;;6.45;100.00;101188.16;5010414;28;20067;-83
2021/10/17 05:40:34;;;;;;;8.02;2.55;;;;;;;6.49;99.61;101195.00;4995290;28;20054;-82
2021/10/17 05:43:02;;;;;;;12.80;3.20;;;;;;;6.52;99.44;101192.25;4999422;28;20064;-82
2021/10/17 05:45:29;;;;;;;9.55;3.40;;;;;;;6.92;97.48;101190.91;5010228;28;20052;-77
2021/10/17 05:47:56;;;;;;;9.30;3.25;;;;;;;6.89;96.45;101188.41;4998238;28;20156;-83
2021/10/17 05:50:24;;;;;;;8.07;2.88;;;;;;;6.96;96.35;101195.13;4976163;28;20132;-79
2021/10/17 05:52:51;;;;;;;9.10;2.90;;;;;;;6.91;96.66;101199.69;5013897;28;20499;-78
2021/10/17 05:55:18;;;;;;;10.75;3.05;;;;;;;6.97;95.99;101203.84;5009287;28;20136;-80
2021/10/17 05:57:45;;;;;;;9.23;2.75;;;;;;;7.34;94.14;101208.66;5003162;28;20404;-79
2021/10/17 06:00:13;;;;;;;13.65;3.35;;;;;;;7.31;94.87;101212.22;5023236;28;20053;-77
2021/10/17 06:02:41;;;;;;;9.43;2.80;;;;;;;7.53;93.25;101209.66;5020635;28;20056;-78
2021/10/17 06:05:08;;;;;;;9.18;2.60;;;;;;;7.43;92.73;101210.03;5016162;28;20057;-76
2021/10/17 06:07:35;;;;;;;12.30;2.67;;;;;;;7.74;91.60;101207.16;4981552;28;20465;-79
2021/10/17 06:10:08;;;;;;;10.88;3.13;;;;;;;7.82;91.10;101213.81;4995651;28;20068;-77
2021/10/17 06:12:37;;;;;;;9.45;3.20;;;;;;;7.76;90.91;101215.81;5008970;28;20057;-83
2021/10/17 06:15:05;;;;;;;7.60;2.63;;;;;;;7.88;90.30;101210.13;5025238;28;20061;-83
2021/10/17 06:17:33;;;;;;;10.60;2.42;;;;;;;8.01;89.90;101220.97;4981020;28;20061;-79
2021/10/17 06:20:01;;;;;;;12.43;3.22;;;;;;;7.98;90.02;101219.34;4996645;28;20522;-75
2021/10/17 06:22:28;;;;;;;11.30;2.33;;;;;;;7.83;91.00;101210.31;5004720;28;20066;-79
2021/10/17 06:24:55;;;;;;;8.13;2.38;;;;;;;7.96;90.29;101210.66;5009387;28;20431;-77
2021/10/17 06:27:22;;;;;;;9.75;2.92;;;;;;;8.14;89.34;101211.72;5012905;28;20069;-79
2021/10/17 06:29:49;;;;;;;8.77;3.08;;;;;;;8.15;88.80;101216.06;5025843;28;20060;-79
2021/10/17 06:32:16;;;;;;;17.50;3.47;;;;;;;8.20;88.32;101215.88;5011014;28;20058;-78
2021/10/17 06:34:43;;;;;;;10.40;2.90;;;;;;;8.25;87.40;101212.16;4992172;28;20149;-76
2021/10/17 06:37:11;;;;;;;16.02;2.90;;;;;;;8.35;86.87;101221.34;5013175;28;20061;-81
2021/10/17 06:39:38;;;;;;;8.77;2.92;;;;;;;8.46;86.82;101222.72;5007853;28;20060;-79
2021/10/17 06:42:08;;;;;;;13.65;3.35;;;;;;;8.55;84.97;101228.44;5012016;28;20500;-79
2021/10/17 06:44:36;;;;;;;7.10;2.78;;;;;;;8.60;85.65;101226.50;4973845;28;20564;-77
2021/10/17 06:47:03;;;;;;;11.93;3.10;;;;;;;8.57;83.88;101231.03;4992647;28;20057;-80
2021/10/17 06:49:30;;;;;;;10.65;2.90;;;;;;;8.39;85.35;101237.00;4990858;28;20057;-83
2021/10/17 06:52:00;;;;;;;9.38;2.83;;;;;;;8.52;85.75;101239.09;5012694;28;20472;-79
2021/10/17 06:54:27;;;;;;;12.02;3.65;;;;;;;8.62;83.39;101234.31;5011498;28;20053;-79
2021/10/17 06:56:54;;;;;;;9.27;3.20;;;;;;;8.76;82.89;101239.00;5032940;28;20385;-77
2021/10/17 06:59:22;;;;;;;10.80;3.58;;;;;;;8.77;83.00;101238.91;5003150;28;20064;-81
2021/10/17 07:01:49;;;;;;;9.35;3.20;;;;;;;8.86;82.48;101237.69;5017097;28;20045;-76
2021/10/17 07:04:16;;;;;;;11.98;3.70;;;;;;;8.94;82.27;101235.59;4974424;28;20310;-82
2021/10/17 07:06:44;;;;;;;6.50;2.80;;;;;;;9.00;81.22;101235.31;5012021;28;20056;-80
2021/10/17 07:09:12;;;;;;;11.48;3.60;;;;;;;8.94;82.33;101225.09;5007911;28;20533;-83
2021/10/17 07:11:39;;;;;;;8.27;3.33;;;;;;;9.03;81.86;101231.72;4996104;28;20046;-80
2021/10/17 07:14:06;;;;;;;10.02;3.20;;;;;;;9.12;80.83;101233.94;5027773;28;20061;-80
2021/10/17 07:16:33;;;;;;;9.52;3.20;;;;;;;9.18;80.76;101235.44;5028672;28;20508;-77
2021/10/17 07:19:00;;;;;;;5.75;2.83;;;;;;;9.29;79.77;101233.22;5009024;28;20065;-85
2021/10/17 07:21:27;;;;;;;8.77;2.78;;;;;;;9.32;79.86;101233.06;5005393;28;20038;-82
2021/10/17 07:23:54;;;;;;;8.70;3.13;;;;;;;9.52;78.93;101235.69;5006785;28;20421;-80
2021/10/17 07:26:22;;;;;;;10.15;2.42;;;;;;;9.67;77.93;101239.38;5011025;28;20081;-81
2021/10/17 07:28:49;;;;;;;10.18;2.90;;;;;;;9.73;77.37;101243.53;5033798;28;20045;-79
2021/10/17 07:31:16;;;;;;;10.07;3.30;;;;;;;9.93;76.23;101243.47;5014821;28;20523;-79
2021/10/17 07:33:43;;;;;;;8.52;3.17;;;;;;;9.93;75.88;101235.56;5008831;28;20500;-78
2021/10/17 07:36:10;;;;;;;9.65;3.20;;;;;;;10.31;73.69;101238.19;4991288;28;20054;-79
2021/10/17 07:38:37;;;;;;;6.47;3.40;;;;;;;10.51;73.21;101239.88;4994292;28;20056;-83
2021/10/17 07:41:04;;;;;;;10.27;3.35;;;;;;;10.43;73.42;101242.03;5010853;28;20315;-79
2021/10/17 07:43:31;;;;;;;9.63;3.35;;;;;;;10.41;74.13;101243.88;4976397;28;20081;-77
2021/10/17 07:46:02;;;;;;;11.95;3.75;;;;;;;10.33;74.09;101245.09;5002725;28;20492;-78
2021/10/17 07:48:31;;;;;;;13.65;3.00;;;;;;;10.31;74.27;101238.19;5000218;28;20063;-79
2021/10/17 07:50:58;;;;;;;12.50;2.90;;;;;;;10.33;73.92;101239.84;5007085;28;20064;-79
2021/10/17 07:53:25;;;;;;;7.80;3.13;;;;;;;10.34;74.11;101238.91;5026582;28;20049;-79
2021/10/17 07:55:52;;;;;;;8.85;3.70;;;;;;;10.22;74.00;101242.09;5029767;28;20052;-82
2021/10/17 07:58:19;;;;;;;7.65;3.00;;;;;;;10.18;74.60;101242.28;5009017;28;20080;-83
2021/10/17 08:00:46;;;;;;;11.57;3.70;;;;;;;10.16;74.17;101245.00;4996802;28;20049;-77
2021/10/17 08:03:14;;;;;;;9.60;3.35;;;;;;;10.24;73.63;101237.66;5024520;28;20064;-81
2021/10/17 08:05:41;;;;;;;11.40;3.70;;;;;;;10.11;74.27;101239.13;5025536;28;20129;-79
2021/10/17 08:08:08;;;;;;;7.65;3.00;;;;;;;10.20;74.32;101228.16;4984846;28;20049;-82
2021/10/17 08:10:35;;;;;;;12.98;3.20;;;;;;;10.07;74.79;101227.88;4998086;28;20068;-81
2021/10/17 08:13:03;;;;;;;12.27;3.60;;;;;;;9.97;75.71;101237.13;4991847;28;20081;-78
2021/10/17 08:15:30;;;;;;;8.23;3.60;;;;;;;10.15;74.36;101233.63;5002808;28;20045;-78
2021/10/17 08:17:57;;;;;;;11.20;3.50;;;;;;;10.24;74.20;101237.66;5010634;28;20140;-82
2021/10/17 08:20:24;;;;;;;9.15;3.25;;;;;;;10.38;73.96;101242.25;4989550;28;20037;-79
2021/10/17 08:22:51;;;;;;;8.98;3.47;;;;;;;10.39;73.99;101238.69;4989834;28;20049;-80
2021/10/17 08:25:18;;;;;;;13.13;3.97;;;;;;;10.63;71.32;101232.22;5005845;28;20157;-81
2021/10/17 08:27:46;;;;;;;8.13;3.20;;;;;;;11.18;69.77;101238.28;4979103;28;20072;-80
2021/10/17 08:30:13;;;;;;;14.40;4.05;;;;;;;11.40;67.16;101237.06;4975192;28;20069;-81
2021/10/17 08:32:40;;;;;;;13.07;4.07;;;;;;;11.71;67.06;101237.22;4995669;28;20046;-81
2021/10/17 08:35:07;;;;;;;14.05;3.85;;;;;;;11.57;65.77;101238.81;5005468;28;20051;-86
2021/10/17 08:37:35;;;;;;;8.93;3.17;;;;;;;11.56;67.05;101242.38;5029485;28;20132;-79
2021/10/17 08:40:03;;;;;;;14.02;3.78;;;;;;;11.61;66.76;101239.50;4967721;28;20510;-81
2021/10/17 08:42:30;;;;;;;12.55;3.97;;;;;;;11.87;65.60;101232.84;4993001;28;20057;-77
2021/10/17 08:45:07;;;;;;;9.00;3.67;;;;;;;12.22;64.89;101230.91;5007482;28;20511;-77
2021/10/17 08:47:34;;;;;;;11.10;3.38;;;;;;;12.83;62.17;101234.44;4994086;28;20451;-79
2021/10/17 08:50:02;;;;;;;7.97;3.40;;;;;;;12.83;61.59;101224.75;4987008;28;20042;-84
2021/10/17 08:52:29;;;;;;;11.65;4.05;;;;;;;12.70;61.93;101233.47;5028151;28;20136;-84
2021/10/17 08:54:56;;;;;;;9.50;3.17;;;;;;;12.58;62.83;101227.09;5004763;28;20099;-82
2021/10/17 08:57:24;;;;;;;13.18;4.05;;;;;;;12.32;63.28;101232.09;5010505;28;20056;-79
2021/10/17 08:59:52;;;;;;;12.07;4.60;;;;;;;11.88;64.20;101238.03;5005951;28;20396;-82
2021/10/17 09:02:21;;;;;;;11.02;3.65;;;;;;;11.88;64.41;101230.13;5009780;28;20054;-82
2021/10/17 09:04:58;;;;;;;12.90;4.15;;;;;;;11.90;64.14;101227.41;4998247;28;20069;-79
2021/10/17 09:07:26;;;;;;;11.60;3.88;;;;;;;11.98;63.87;101224.34;4994049;28;20057;-79
2021/10/17 09:10:09;;;;;;;9.60;3.40;;;;;;;12.71;62.67;101216.69;4989883;28;20049;-78
2021/10/17 09:12:39;;;;;;;12.15;3.42;;;;;;;14.51;56.57;101204.66;4996478;28;20084;-77
2021/10/17 09:15:23;;;;;;;10.73;3.35;;;;;;;15.86;52.09;101207.69;4975959;28;20049;-78
2021/10/17 09:18:23;;;;;;;9.45;3.35;;;;;;;14.91;53.77;101208.13;4994390;28;20052;-85
2021/10/17 09:21:02;;;;;;;10.52;3.63;;;;;;;15.02;52.91;101205.59;5009235;28;20457;-78
2021/10/17 09:23:29;;;;;;;9.98;3.42;;;;;;;14.91;53.11;101197.53;5028425;28;20069;-81
2021/10/17 09:25:58;;;;;;;16.30;4.18;;;;;;;14.61;53.52;101201.28;5028276;28;20060;-82
2021/10/17 09:28:27;;;;;;;7.82;3.05;;;;;;;14.11;54.69;101193.97;4991130;28;20045;-82
2021/10/17 09:31:01;;;;;;;12.07;3.35;;;;;;;13.59;56.42;101211.34;5023159;28;20144;-80
2021/10/17 09:33:42;;;;;;;9.27;3.88;;;;;;;13.87;56.06;101209.63;5021606;28;20049;-80
2021/10/17 09:36:31;;;;;;;8.65;3.50;;;;;;;14.02;55.83;101213.09;5011281;28;20091;-78
2021/10/17 09:39:18;;;;;;;11.75;3.85;;;;;;;14.03;55.94;101207.69;4993803;28;20057;-82
2021/10/17 09:41:53;;;;;;;7.40;3.20;;;;;;;13.91;56.13;101204.06;5038004;28;20141;-79
2021/10/17 09:44:20;;;;;;;12.15;4.32;;;;;;;13.86;56.62;101213.22;4991775;28;20050;-79
2021/10/17 09:46:59;;;;;;;5.90;2.95;;;;;;;13.64;56.69;101211.94;4997745;28;20072;-79
2021/10/17 09:49:27;;;;;;;11.35;3.40;;;;;;;13.74;56.74;101214.00;4991080;28;20057;-79
2021/10/17 09:52:17;;;;;;;9.75;3.15;;;;;;;13.54;57.11;101221.38;4981774;28;20072;-83
2021/10/17 09:54:49;;;;;;;6.35;3.28;;;;;;;12.85;59.32;101222.84;5000715;28;20048;-80
2021/10/17 09:57:17;;;;;;;11.60;3.33;;;;;;;12.85;59.65;101222.84;5000077;28;20140;-84
2021/10/17 09:59:45;;;;;;;10.30;3.42;;;;;;;12.87;59.48;101220.13;5011004;28;20129;-79
2021/10/17 10:02:13;;;;;;;12.18;3.47;;;;;;;12.47;60.09;101219.78;5006062;28;20053;-76
2021/10/17 10:04:43;;;;;;;18.58;3.42;;;;;;;12.64;60.23;101217.03;4990988;28;20056;-79
2021/10/17 10:07:15;;;;;;;8.43;2.95;;;;;;;12.54;60.02;101212.38;5020055;28;20353;-80
2021/10/17 10:09:46;;;;;;;7.55;3.45;;;;;;;12.59;59.30;101211.16;5010181;28;20049;-80
2021/10/17 10:12:17;;;;;;;11.85;2.92;;;;;;;12.37;60.09;101208.06;5000481;28;20045;-84
2021/10/17 10:14:46;;;;;;;9.10;2.70;;;;;;;13.16;58.21;101202.53;5007737;28;20085;-79
2021/10/17 10:17:15;;;;;;;11.75;2.67;;;;;;;13.42;57.25;101200.97;4997354;28;20049;-78
2021/10/17 10:19:43;;;;;;;12.23;3.17;;;;;;;13.33;58.56;101202.41;4994118;28;20048;-81
2021/10/17 10:22:12;;;;;;;9.73;3.35;;;;;;;13.41;58.36;101207.19;4995932;28;20140;-78
2021/10/17 10:24:39;;;;;;;9.23;3.17;;;;;;;13.26;58.81;101208.13;4992803;28;20049;-80
2021/10/17 10:27:07;;;;;;;11.80;3.17;;;;;;;13.28;58.70;101204.44;4999484;28;20077;-80
2021/10/17 10:29:34;;;;;;;13.52;3.58;;;;;;;13.40;58.28;101195.75;5008498;28;20210;-80
2021/10/17 10:32:05;;;;;;;20.42;4.03;;;;;;;13.31;58.96;101196.34;5012204;28;20097;-82
2021/10/17 10:34:35;;;;;;;14.02;3.25;;;;;;;13.61;58.04;101196.25;5008112;28;20053;-80
2021/10/17 10:37:15;;;;;;;12.07;2.88;;;;;;;13.71;58.16;101185.94;5013349;28;20057;-82
2021/10/17 10:40:01;;;;;;;12.40;3.67;;;;;;;14.22;56.98;101183.53;5002644;28;20219;-79
2021/10/17 10:42:32;;;;;;;12.60;2.72;;;;;;;14.41;56.60;101191.97;5005184;28;20045;-77
2021/10/17 10:45:34;;;;;;;14.05;3.10;;;;;;;14.49;56.97;101199.44;5010800;28;20593;-83
2021/10/17 10:48:10;;;;;;;11.65;3.40;;;;;;;14.68;56.33;101205.22;5012386;28;20037;-78
2021/10/17 10:50:45;;;;;;;14.00;3.13;;;;;;;14.75;55.89;101205.66;5008421;28;20041;-84
2021/10/17 10:53:46;;;;;;;11.68;3.15;;;;;;;14.74;56.21;101208.41;4991385;28;20056;-86
2021/10/17 10:56:49;;;;;;;11.18;2.97;;;;;;;13.60;58.92;101213.06;4990963;28;20083;-78
2021/10/17 10:59:18;;;;;;;11.13;2.60;;;;;;;13.66;59.40;101222.41;4969946;28;20087;-79
2021/10/17 11:01:50;;;;;;;11.75;3.63;;;;;;;13.62;59.27;101216.44;5012534;28;20061;-79
2021/10/17 11:04:41;;;;;;;9.35;3.08;;;;;;;12.89;62.15;101224.38;5004846;28;20064;-82
2021/10/17 11:07:33;;;;;;;12.55;3.80;;;;;;;13.22;62.85;101233.91;5011713;28;20076;-81
2021/10/17 11:10:32;;;;;;;12.98;4.00;;;;;;;13.62;61.38;101229.69;5014279;28;20373;-81
2021/10/17 11:13:00;;;;;;;13.55;3.22;;;;;;;13.76;60.69;101230.63;4990867;28;20158;-82
2021/10/17 11:15:29;;;;;;;12.68;2.90;;;;;;;13.50;61.79;101222.50;5033440;28;20045;-80
2021/10/17 11:18:05;;;;;;;14.65;3.88;;;;;;;13.29;62.55;101229.13;5025892;28;20148;-79
2021/10/17 11:20:45;;;;;;;14.32;3.58;;;;;;;12.84;64.06;101234.38;5008049;28;20065;-83
2021/10/17 11:23:20;;;;;;;9.95;3.20;;;;;;;13.21;63.49;101231.34;5012155;28;20508;-81
2021/10/17 11:26:01;;;;;;;10.30;3.17;;;;;;;13.49;62.23;101223.44;5009001;28;20054;-81
2021/10/17 11:28:29;;;;;;;10.90;3.65;;;;;;;13.31;62.93;101221.94;4976990;28;20113;-82
2021/10/17 11:31:05;;;;;;;11.27;3.08;;;;;;;13.52;62.93;101217.97;5009503;28;20053;-78
2021/10/17 11:33:33;;;;;;;15.35;3.75;;;;;;;13.77;62.40;101227.03;5007293;28;20096;-81
2021/10/17 11:36:00;;;;;;;14.75;3.65;;;;;;;14.24;60.72;101213.41;4992676;28;20041;-79